Time;durP1;ratioP1;P1;durP2;ratioP2;P2;SDS_P1;SDS_P2;PMS_P1;PMS_P2;Temp;Humidity;BMP_temperature;BMP_pressure;BME280_temperature;BME280_humidity;BME280_pressure;Samples;Min_cycle;Max_cycle;Signal;HPM_P1;HPM_P2
2022/10/31 00:01:35;;;;;;;7.03;1.60;;;;;;;16.33;37.48;94333.41;5036078;28;20025;-76
2022/10/31 00:04:00;;;;;;;;;;;;;;;16.29;37.43;94331.38;5034910;28;20246;-76
2022/10/31 00:06:26;;;;;;;4.93;1.60;;;;;;;16.10;38.01;94307.00;5036448;28;19923;-75
2022/10/31 00:09:00;;;;;;;1.90;1.45;;;;;;;16.30;37.98;94322.22;5036678;28;20035;-75
2022/10/31 00:11:25;;;;;;;5.93;1.70;;;;;;;16.30;37.97;94324.91;5035375;28;20021;-76
2022/10/31 00:13:51;;;;;;;2.70;1.48;;;;;;;16.38;37.55;94315.16;5019522;28;20024;-75
2022/10/31 00:16:21;;;;;;;2.22;1.83;;;;;;;16.24;37.50;94295.91;5035332;28;20044;-76
2022/10/31 00:18:55;;;;;;;6.82;2.15;;;;;;;16.27;37.67;94301.41;5036163;28;20056;-75
2022/10/31 00:21:21;;;;;;;3.13;1.58;;;;;;;16.35;37.52;94305.09;5036220;28;20060;-75
2022/10/31 00:23:47;;;;;;;4.10;1.92;;;;;;;16.19;37.76;94291.56;5036427;28;20037;-75
2022/10/31 00:26:13;;;;;;;8.18;1.90;;;;;;;16.30;37.72;94316.84;5023048;28;20513;-76
2022/10/31 00:28:39;;;;;;;3.25;1.88;;;;;;;16.39;37.52;94324.78;5036282;28;20515;-76
2022/10/31 00:31:06;;;;;;;3.70;2.15;;;;;;;16.35;37.79;94320.44;5036038;28;20017;-76
2022/10/31 00:33:37;;;;;;;7.80;1.92;;;;;;;16.30;37.77;94310.69;5034546;28;20024;-75
2022/10/31 00:36:04;;;;;;;2.58;1.88;;;;;;;16.27;37.94;94306.78;5034964;28;20029;-77
2022/10/31 00:38:30;;;;;;;2.90;1.27;;;;;;;16.38;37.99;94311.72;5014949;28;21089;-76
2022/10/31 00:40:55;;;;;;;3.35;1.80;;;;;;;16.39;37.98;94313.25;5036884;28;20017;-75
2022/10/31 00:43:20;;;;;;;5.50;1.60;;;;;;;16.29;38.05;94303.75;5033829;28;20473;-76
2022/10/31 00:45:46;;;;;;;3.30;1.88;;;;;;;16.05;38.22;94283.06;5036846;28;20048;-75
2022/10/31 00:48:12;;;;;;;3.97;1.80;;;;;;;16.24;37.88;94312.78;5034138;28;20477;-76
2022/10/31 00:50:37;;;;;;;6.28;1.95;;;;;;;16.30;37.92;94308.81;5030596;28;20412;-77
2022/10/31 00:53:03;;;;;;;3.30;1.52;;;;;;;16.16;38.39;94304.88;5036798;28;20025;-75
2022/10/31 00:55:29;;;;;;;5.18;2.20;;;;;;;16.28;38.10;94307.56;5036980;28;22116;-76
2022/10/31 00:57:54;;;;;;;3.55;1.92;;;;;;;16.13;38.26;94284.88;5033778;28;20051;-75
2022/10/31 01:00:20;;;;;;;4.20;2.03;;;;;;;16.13;38.26;94294.81;5037089;28;20060;-75
2022/10/31 01:02:45;;;;;;;4.85;3.13;;;;;;;16.31;38.23;94313.06;5016771;28;20032;-76
2022/10/31 01:05:11;;;;;;;3.53;1.67;;;;;;;16.35;37.97;94296.28;5036017;28;20098;-76
2022/10/31 01:07:37;;;;;;;5.05;1.90;;;;;;;16.37;38.11;94310.94;5033074;28;20378;-76
2022/10/31 01:10:04;;;;;;;3.00;1.48;;;;;;;16.47;38.09;94309.69;5034869;28;20115;-75
2022/10/31 01:12:29;;;;;;;1.63;1.52;;;;;;;16.49;38.01;94307.44;5035481;28;20047;-76
2022/10/31 01:14:54;;;;;;;7.60;2.20;;;;;;;16.45;38.10;94306.56;5035832;28;20024;-75
2022/10/31 01:17:20;;;;;;;2.63;1.88;;;;;;;16.20;37.82;94273.56;5034903;28;20778;-75
2022/10/31 01:19:45;;;;;;;3.85;2.10;;;;;;;16.39;37.96;94299.84;5017759;28;20143;-75
2022/10/31 01:22:11;;;;;;;3.10;2.25;;;;;;;15.99;38.62;94300.50;5034404;28;20112;-76
2022/10/31 01:24:36;;;;;;;4.88;1.90;;;;;;;16.03;38.65;94311.34;5033125;28;20029;-76
2022/10/31 01:27:02;;;;;;;3.08;1.92;;;;;;;16.18;38.67;94321.44;5038931;28;20025;-75
2022/10/31 01:29:28;;;;;;;5.55;1.88;;;;;;;16.14;38.79;94323.19;5019649;28;20021;-75
2022/10/31 01:31:53;;;;;;;8.25;3.15;;;;;;;16.07;38.40;94302.31;5037776;28;20375;-75
2022/10/31 01:34:19;;;;;;;3.95;2.85;;;;;;;16.15;38.70;94304.09;5039234;28;21624;-76
2022/10/31 01:36:47;;;;;;;2.40;1.80;;;;;;;16.37;38.54;94321.66;5039503;28;20605;-75
2022/10/31 01:39:14;;;;;;;5.47;2.55;;;;;;;16.36;38.75;94320.09;5019614;28;20028;-76
2022/10/31 01:41:42;;;;;;;3.75;2.85;;;;;;;16.30;38.62;94308.81;5037859;28;20025;-76
2022/10/31 01:44:14;;;;;;;7.03;2.05;;;;;;;16.45;38.87;94328.03;5013810;28;20377;-76
2022/10/31 01:47:05;;;;;;;4.22;2.25;;;;;;;16.51;38.46;94332.06;5038785;28;20025;-75
2022/10/31 01:49:42;;;;;;;5.18;2.60;;;;;;;16.54;38.48;94318.72;5036919;28;20037;-75
2022/10/31 01:52:42;;;;;;;6.65;2.70;;;;;;;16.39;38.14;94302.53;5039363;28;20028;-75
2022/10/31 01:55:11;;;;;;;4.18;2.20;;;;;;;16.60;38.41;94319.28;5000014;28;20090;-76
2022/10/31 01:57:40;;;;;;;4.57;2.45;;;;;;;16.70;38.31;94340.31;5040237;28;20024;-76
2022/10/31 02:00:08;;;;;;;4.60;2.03;;;;;;;16.72;38.15;94328.09;5036496;28;20119;-76
2022/10/31 02:02:34;;;;;;;4.93;2.58;;;;;;;16.75;38.11;94334.69;5039209;28;20127;-76
2022/10/31 02:05:04;;;;;;;9.35;3.22;;;;;;;16.77;38.27;94326.31;5040483;28;20074;-75
2022/10/31 02:07:36;;;;;;;6.72;2.65;;;;;;;16.81;38.07;94317.25;5018486;28;20220;-75
2022/10/31 02:10:02;;;;;;;4.40;2.25;;;;;;;16.80;38.06;94307.59;5036840;28;20025;-78
2022/10/31 02:12:31;;;;;;;3.50;1.85;;;;;;;16.99;37.97;94320.41;5040455;28;20025;-76
2022/10/31 02:14:57;;;;;;;4.80;2.63;;;;;;;16.76;38.13;94296.00;5040933;28;20055;-75
2022/10/31 02:17:23;;;;;;;5.15;2.47;;;;;;;16.87;38.25;94312.38;5020069;28;20574;-76
2022/10/31 02:20:02;;;;;;;3.45;2.33;;;;;;;17.01;38.28;94318.94;5039721;28;20029;-75
2022/10/31 02:22:54;;;;;;;4.75;2.35;;;;;;;16.93;38.05;94311.81;5038570;28;20029;-75
2022/10/31 02:25:25;;;;;;;2.97;2.15;;;;;;;16.98;38.61;94322.31;5038845;28;20025;-76
2022/10/31 02:28:02;;;;;;;5.50;2.38;;;;;;;16.99;38.14;94329.28;5037655;28;20493;-75
2022/10/31 02:31:04;;;;;;;5.53;2.50;;;;;;;16.95;38.20;94336.44;5039306;28;20032;-75
2022/10/31 02:33:50;;;;;;;7.72;3.22;;;;;;;16.77;38.07;94307.50;5038718;28;21341;-76
2022/10/31 02:36:25;;;;;;;3.05;2.75;;;;;;;16.80;38.02;94318.34;5037718;28;20021;-76
2022/10/31 02:39:12;;;;;;;3.90;2.33;;;;;;;16.89;38.07;94337.81;5035887;28;20029;-76
2022/10/31 02:41:48;;;;;;;5.28;2.72;;;;;;;16.81;38.15;94337.94;5021834;28;20021;-76
2022/10/31 02:44:39;;;;;;;6.13;3.42;;;;;;;16.75;38.53;94356.97;5037020;28;20029;-75
2022/10/31 02:47:13;;;;;;;4.28;2.22;;;;;;;16.62;38.70;94343.91;5036719;28;20083;-76
2022/10/31 02:49:44;;;;;;;6.57;2.70;;;;;;;16.67;38.71;94357.13;5039370;28;20028;-76
2022/10/31 02:52:18;;;;;;;5.78;2.70;;;;;;;16.46;39.44;94334.97;5037192;28;20025;-76
2022/10/31 02:54:45;;;;;;;5.22;3.03;;;;;;;16.45;39.31;94336.09;5038349;28;20029;-75
2022/10/31 02:57:11;;;;;;;3.35;2.25;;;;;;;16.54;39.28;94356.31;5038990;28;20024;-76
2022/10/31 02:59:40;;;;;;;6.70;3.50;;;;;;;16.35;39.85;94333.84;5039076;28;20062;-76
2022/10/31 03:02:29;;;;;;;3.75;2.58;;;;;;;16.34;39.65;94338.44;5038459;28;20029;-76
2022/10/31 03:05:03;;;;;;;3.42;2.80;;;;;;;16.48;39.52;94357.66;5031489;28;20124;-76
2022/10/31 03:08:17;;;;;;;11.90;4.00;;;;;;;16.52;39.31;94369.31;5039508;28;20025;-75
2022/10/31 03:10:54;;;;;;;4.75;3.25;;;;;;;16.48;39.80;94365.72;5006712;28;20132;-75
2022/10/31 03:13:39;;;;;;;7.50;2.92;;;;;;;16.49;39.71;94369.19;5037914;28;20021;-75
2022/10/31 03:16:18;;;;;;;3.58;2.83;;;;;;;16.22;40.02;94343.78;5037732;28;20655;-76
2022/10/31 03:18:53;;;;;;;4.82;2.85;;;;;;;16.30;39.78;94346.38;5038849;28;20025;-75
2022/10/31 03:21:29;;;;;;;3.17;2.63;;;;;;;16.45;39.87;94366.41;5019499;28;20130;-75
2022/10/31 03:23:57;;;;;;;5.35;2.97;;;;;;;16.40;40.41;94353.19;5020278;28;20024;-76
2022/10/31 03:26:24;;;;;;;3.92;3.28;;;;;;;16.43;40.04;94367.88;5036693;28;20029;-75
2022/10/31 03:28:58;;;;;;;6.50;3.03;;;;;;;16.31;40.28;94372.13;5038066;28;20029;-75
2022/10/31 03:31:30;;;;;;;5.75;3.08;;;;;;;16.30;40.09;94370.53;5036924;28;20027;-76
2022/10/31 03:33:59;;;;;;;4.75;3.10;;;;;;;16.07;40.20;94349.81;5037725;28;20526;-76
2022/10/31 03:36:27;;;;;;;4.95;3.30;;;;;;;16.09;40.63;94367.13;5037873;28;20040;-75
2022/10/31 03:38:53;;;;;;;6.57;2.80;;;;;;;16.12;40.33;94369.16;5036383;28;20045;-75
2022/10/31 03:41:24;;;;;;;4.22;2.60;;;;;;;15.76;40.40;94312.78;5038299;28;20044;-76
2022/10/31 03:44:01;;;;;;;7.80;2.67;;;;;;;15.90;40.15;94350.78;5038000;28;20086;-76
2022/10/31 03:46:27;;;;;;;5.20;2.83;;;;;;;15.97;40.38;94361.75;5012209;28;20029;-76
2022/10/31 03:48:53;;;;;;;5.72;2.55;;;;;;;16.08;40.50;94379.00;5035962;28;20036;-76
2022/10/31 03:51:27;;;;;;;3.20;2.40;;;;;;;15.92;40.58;94364.66;5037540;28;20494;-76
2022/10/31 03:54:04;;;;;;;5.53;3.13;;;;;;;16.00;40.48;94379.09;5035400;28;20492;-76
2022/10/31 03:56:51;;;;;;;5.10;2.60;;;;;;;15.84;40.47;94365.56;5033318;28;20543;-75
2022/10/31 03:59:30;;;;;;;3.95;2.63;;;;;;;16.04;40.58;94388.81;5035279;28;20017;-76
2022/10/31 04:02:02;;;;;;;5.00;3.28;;;;;;;16.02;40.65;94390.28;5035498;28;20523;-76
2022/10/31 04:04:29;;;;;;;5.32;3.25;;;;;;;15.87;40.91;94367.56;5037186;28;20048;-76
2022/10/31 04:06:57;;;;;;;7.72;3.95;;;;;;;15.92;40.79;94378.06;5037507;28;20496;-75
2022/10/31 04:09:25;;;;;;;5.40;3.00;;;;;;;15.83;40.82;94363.97;5036075;28;20560;-75
2022/10/31 04:11:54;;;;;;;4.38;3.17;;;;;;;15.86;40.63;94371.34;5034689;28;20043;-76
2022/10/31 04:14:21;;;;;;;5.65;3.53;;;;;;;15.88;41.37;94367.22;5037358;28;20017;-75
2022/10/31 04:16:47;;;;;;;5.18;3.00;;;;;;;15.97;41.40;94387.81;5036280;28;20044;-75
2022/10/31 04:19:13;;;;;;;5.28;3.35;;;;;;;15.91;41.50;94381.88;5036871;28;20024;-76
2022/10/31 04:21:38;;;;;;;6.63;4.00;;;;;;;15.76;41.80;94366.41;5036088;28;20522;-75
2022/10/31 04:24:04;;;;;;;8.07;3.50;;;;;;;15.92;41.97;94402.22;5018152;28;20031;-75
2022/10/31 04:26:29;;;;;;;9.35;4.65;;;;;;;15.65;42.01;94354.53;5035941;28;20028;-75
2022/10/31 04:28:55;;;;;;;10.07;5.32;;;;;;;15.81;42.36;94384.97;5035610;28;20020;-76
2022/10/31 04:31:20;;;;;;;15.68;5.88;;;;;;;15.84;42.19;94400.41;5037044;28;20380;-75
2022/10/31 04:33:46;;;;;;;20.33;9.00;;;;;;;15.72;42.62;94384.28;5036608;28;20086;-76
2022/10/31 04:36:11;;;;;;;17.77;7.45;;;;;;;15.79;42.57;94397.94;5035573;28;20434;-76
2022/10/31 04:38:36;;;;;;;30.38;9.10;;;;;;;15.76;42.45;94390.53;5035612;28;20068;-75
2022/10/31 04:41:04;;;;;;;16.17;7.25;;;;;;;15.78;42.43;94399.06;5035662;28;20111;-75
2022/10/31 04:43:30;;;;;;;14.82;7.65;;;;;;;15.85;42.59;94405.44;5036136;28;20563;-76
2022/10/31 04:45:55;;;;;;;11.80;6.35;;;;;;;15.83;42.54;94406.88;5034316;28;20074;-75
2022/10/31 04:48:21;;;;;;;9.18;4.85;;;;;;;15.66;42.68;94385.59;5036191;28;20020;-75
2022/10/31 04:50:46;;;;;;;12.60;4.32;;;;;;;15.57;42.84;94371.50;5036346;28;20028;-76
2022/10/31 04:53:11;;;;;;;11.75;5.72;;;;;;;15.67;42.66;94392.53;5035969;28;20031;-76
2022/10/31 04:55:37;;;;;;;12.05;5.75;;;;;;;15.56;43.14;94384.13;5035762;28;20025;-76
2022/10/31 04:58:02;;;;;;;15.98;4.47;;;;;;;15.70;43.16;94410.63;5035516;28;20021;-76
2022/10/31 05:00:28;;;;;;;9.10;5.05;;;;;;;15.57;43.21;94396.41;5035122;28;20492;-76
2022/10/31 05:02:55;;;;;;;15.30;6.00;;;;;;;15.64;43.13;94412.75;5036433;28;20590;-75
2022/10/31 05:05:25;;;;;;;12.57;7.00;;;;;;;15.48;43.31;94400.28;5036844;28;20077;-75
2022/10/31 05:07:52;;;;;;;11.38;5.55;;;;;;;15.54;43.18;94418.53;5035876;28;20065;-76
2022/10/31 05:10:19;;;;;;;12.50;5.00;;;;;;;15.44;43.37;94402.84;5036408;28;20069;-76
2022/10/31 05:12:47;;;;;;;12.80;5.38;;;;;;;15.52;43.64;94430.69;5036496;28;20025;-76
2022/10/31 05:15:13;;;;;;;11.00;5.00;;;;;;;15.38;43.64;94423.69;5036287;28;20025;-75
2022/10/31 05:17:38;;;;;;;7.45;4.65;;;;;;;15.39;43.69;94416.41;5034838;28;20045;-75
2022/10/31 05:20:04;;;;;;;7.82;4.38;;;;;;;15.39;44.09;94433.28;5037026;28;20031;-75
2022/10/31 05:22:29;;;;;;;12.68;4.68;;;;;;;15.32;44.32;94421.50;5035130;28;20029;-75
2022/10/31 05:24:55;;;;;;;8.27;4.55;;;;;;;15.39;44.44;94437.88;5019240;28;20431;-75
2022/10/31 05:27:20;;;;;;;8.35;5.82;;;;;;;15.38;44.17;94442.44;5034740;28;20033;-76
2022/10/31 05:29:46;;;;;;;8.02;4.97;;;;;;;15.19;44.65;94412.63;5036722;28;20489;-77
2022/10/31 05:32:11;;;;;;;10.20;5.18;;;;;;;15.22;44.32;94406.63;5034957;28;20024;-76
2022/10/31 05:34:37;;;;;;;7.57;4.65;;;;;;;15.25;44.56;94411.34;5036685;28;20032;-76
2022/10/31 05:37:02;;;;;;;8.20;3.67;;;;;;;15.39;44.23;94441.31;5034889;28;20103;-75
2022/10/31 05:39:27;;;;;;;8.48;4.50;;;;;;;15.34;44.42;94441.53;5036545;28;20067;-75
2022/10/31 05:41:53;;;;;;;9.77;6.03;;;;;;;15.37;44.08;94450.78;5013299;28;20060;-76
2022/10/31 05:44:18;;;;;;;8.10;4.40;;;;;;;15.28;44.26;94434.78;5035206;28;20025;-76
2022/10/31 05:46:46;;;;;;;11.27;5.45;;;;;;;15.40;44.12;94456.28;5035571;28;20111;-76
2022/10/31 05:49:11;;;;;;;8.73;5.10;;;;;;;15.35;44.10;94448.44;5034047;28;20036;-75
2022/10/31 05:51:36;;;;;;;7.78;5.03;;;;;;;15.24;44.32;94430.41;5035371;28;20396;-76
2022/10/31 05:54:02;;;;;;;11.77;6.38;;;;;;;15.35;44.41;94459.16;5036308;28;20028;-76
2022/10/31 05:56:27;;;;;;;12.00;5.63;;;;;;;15.20;44.11;94435.66;5036788;28;20104;-75
2022/10/31 05:58:53;;;;;;;9.10;5.80;;;;;;;15.23;44.25;94442.22;5035383;28;20037;-75
2022/10/31 06:01:18;;;;;;;10.85;5.53;;;;;;;15.21;44.37;94447.13;5036120;28;20396;-76
2022/10/31 06:03:43;;;;;;;15.02;5.90;;;;;;;15.12;44.62;94433.78;5036626;28;20025;-77
2022/10/31 06:06:09;;;;;;;11.32;6.05;;;;;;;15.26;44.66;94460.31;5019250;28;20401;-76
2022/10/31 06:08:34;;;;;;;13.88;6.45;;;;;;;15.31;44.45;94468.19;5033681;28;20032;-76
2022/10/31 06:10:59;;;;;;;14.82;7.18;;;;;;;15.13;44.06;94454.13;5036399;28;20427;-76
2022/10/31 06:13:25;;;;;;;8.40;6.63;;;;;;;15.16;44.26;94452.69;5037235;28;20109;-75
2022/10/31 06:15:50;;;;;;;17.48;7.75;;;;;;;15.35;44.37;94479.84;5038044;28;20587;-75
2022/10/31 06:18:15;;;;;;;13.60;7.28;;;;;;;15.33;44.20;94472.13;5038067;28;20029;-75
2022/10/31 06:20:41;;;;;;;12.20;6.35;;;;;;;15.29;43.96;94460.47;5024211;28;20056;-76
2022/10/31 06:23:06;;;;;;;11.82;7.50;;;;;;;15.32;43.99;94456.34;5037801;28;20075;-75
2022/10/31 06:25:33;;;;;;;13.13;6.50;;;;;;;15.35;43.97;94461.06;5021260;28;20377;-76
2022/10/31 06:27:58;;;;;;;12.70;7.10;;;;;;;15.55;44.07;94494.38;5037454;28;20481;-76
2022/10/31 06:30:24;;;;;;;20.45;10.73;;;;;;;15.44;43.70;94470.66;5039667;28;20052;-76
2022/10/31 06:32:50;;;;;;;14.30;7.40;;;;;;;15.62;43.76;94508.03;5020670;28;20036;-76
2022/10/31 06:35:15;;;;;;;12.57;8.40;;;;;;;15.39;43.91;94476.19;5038272;28;20033;-75
2022/10/31 06:37:41;;;;;;;18.40;8.60;;;;;;;15.54;44.00;94506.22;5039390;28;20547;-75
2022/10/31 06:40:06;;;;;;;16.83;8.50;;;;;;;15.66;43.86;94503.56;5039418;28;20029;-76
2022/10/31 06:42:32;;;;;;;13.60;9.38;;;;;;;15.54;44.01;94487.44;5037741;28;20551;-76
2022/10/31 06:44:57;;;;;;;15.00;8.40;;;;;;;15.51;44.08;94504.16;5034952;28;20028;-76
2022/10/31 06:47:22;;;;;;;14.73;8.60;;;;;;;15.46;43.82;94492.53;5034930;28;20497;-76
2022/10/31 06:49:48;;;;;;;16.92;9.15;;;;;;;15.60;43.79;94496.84;5015879;28;20029;-76
2022/10/31 06:52:14;;;;;;;15.63;9.18;;;;;;;15.69;44.00;94508.31;5031430;28;20459;-76
2022/10/31 06:54:39;;;;;;;16.55;8.82;;;;;;;15.71;43.86;94498.81;5033111;28;20029;-76
2022/10/31 06:57:04;;;;;;;16.33;8.77;;;;;;;15.83;44.06;94508.81;5033699;28;20037;-76
2022/10/31 06:59:30;;;;;;;17.58;8.80;;;;;;;15.84;43.91;94502.34;5033010;28;20036;-77
2022/10/31 07:01:57;;;;;;;16.25;9.65;;;;;;;15.92;43.45;94503.38;5026594;28;20513;-74
2022/10/31 07:04:22;;;;;;;20.73;9.30;;;;;;;15.59;43.72;94450.50;5032487;28;20029;-77
2022/10/31 07:06:50;;;;;;;15.27;9.95;;;;;;;15.64;44.70;94516.53;5034834;28;20091;-77
2022/10/31 07:09:16;;;;;;;16.67;9.48;;;;;;;15.62;44.18;94491.94;5044293;28;20020;-76
2022/10/31 07:11:41;;;;;;;16.90;9.18;;;;;;;15.81;44.42;94513.72;5056089;28;20112;-75
2022/10/31 07:14:06;;;;;;;17.45;9.88;;;;;;;15.86;43.89;94510.81;5040596;28;20473;-76
2022/10/31 07:16:32;;;;;;;16.60;9.75;;;;;;;15.79;44.16;94499.84;5035463;28;20554;-76
2022/10/31 07:18:57;;;;;;;15.02;9.65;;;;;;;15.92;43.66;94514.88;5034157;28;20037;-77
2022/10/31 07:21:22;;;;;;;13.18;9.27;;;;;;;15.93;43.42;94511.09;5033067;28;20803;-77
2022/10/31 07:23:48;;;;;;;17.65;10.48;;;;;;;15.97;43.11;94506.63;5033454;28;20432;-76
2022/10/31 07:26:14;;;;;;;15.57;10.57;;;;;;;15.96;43.48;94493.53;5035304;28;20086;-78
2022/10/31 07:28:39;;;;;;;17.38;10.23;;;;;;;15.96;43.16;94462.13;5017391;28;20492;-78
2022/10/31 07:31:05;;;;;;;17.38;10.02;;;;;;;16.10;43.08;94475.25;5032200;28;20116;-77
2022/10/31 07:33:30;;;;;;;16.33;10.45;;;;;;;16.13;42.75;94472.72;5034280;28;20075;-78
2022/10/31 07:35:55;;;;;;;20.55;9.48;;;;;;;16.19;42.81;94471.34;5029770;28;20121;-77
2022/10/31 07:38:21;;;;;;;15.25;10.10;;;;;;;16.22;42.84;94465.34;5030505;28;20039;-77
2022/10/31 07:40:51;;;;;;;16.88;11.23;;;;;;;16.08;42.74;94443.41;5031952;28;20040;-77
2022/10/31 07:43:16;;;;;;;14.15;9.85;;;;;;;16.13;43.04;94474.59;5033922;28;20032;-78
2022/10/31 07:45:41;;;;;;;23.40;11.35;;;;;;;16.36;43.27;94497.28;5034238;28;20051;-78
2022/10/31 07:48:08;;;;;;;20.30;12.25;;;;;;;16.21;42.81;94471.81;5034075;28;20501;-77
2022/10/31 07:50:34;;;;;;;18.20;10.43;;;;;;;15.98;42.92;94443.03;5031655;28;20036;-77
2022/10/31 07:53:04;;;;;;;18.83;10.27;;;;;;;16.39;43.07;94491.22;5030719;28;20536;-77
2022/10/31 07:55:30;;;;;;;18.75;11.68;;;;;;;16.23;43.06;94474.94;5023956;28;20032;-77
2022/10/31 07:58:16;;;;;;;13.98;10.35;;;;;;;16.37;43.34;94488.09;5032166;28;20032;-77
2022/10/31 08:00:43;;;;;;;17.10;10.85;;;;;;;16.16;43.21;94445.19;5031195;28;20457;-77
2022/10/31 08:03:11;;;;;;;19.92;10.82;;;;;;;16.54;43.30;94497.84;5033440;28;20094;-77
2022/10/31 08:05:38;;;;;;;16.55;10.77;;;;;;;16.57;43.38;94507.94;5029859;28;20032;-77
2022/10/31 08:08:04;;;;;;;20.63;11.18;;;;;;;16.47;43.04;94468.88;5033281;28;20052;-77
2022/10/31 08:10:31;;;;;;;17.15;10.70;;;;;;;16.79;42.77;94504.81;5032351;28;21159;-77
2022/10/31 08:13:02;;;;;;;17.80;10.52;;;;;;;16.75;42.43;94490.50;5033046;28;20032;-77
2022/10/31 08:15:28;;;;;;;14.02;9.82;;;;;;;16.82;42.17;94493.38;5032779;28;20024;-77
2022/10/31 08:17:54;;;;;;;15.57;9.30;;;;;;;16.71;42.18;94481.53;5049762;28;20057;-77
2022/10/31 08:20:20;;;;;;;15.43;10.15;;;;;;;16.88;42.45;94489.38;5053185;28;20100;-76
2022/10/31 08:22:56;;;;;;;17.10;11.30;;;;;;;17.03;42.11;94510.19;5050519;28;20047;-75
2022/10/31 08:25:22;;;;;;;16.67;10.07;;;;;;;17.14;42.07;94505.97;5046351;28;20077;-74
2022/10/31 08:27:55;;;;;;;16.73;10.98;;;;;;;17.08;42.61;94501.91;5045075;28;20033;-74
2022/10/31 08:30:22;;;;;;;13.18;9.15;;;;;;;17.10;42.25;94505.06;5034797;28;20048;-74
2022/10/31 08:32:57;;;;;;;22.58;10.40;;;;;;;17.27;42.07;94503.25;5042001;28;20031;-75
2022/10/31 08:35:23;;;;;;;19.70;9.77;;;;;;;17.16;42.63;94503.72;5049506;28;20039;-74
2022/10/31 08:37:55;;;;;;;13.07;9.48;;;;;;;17.24;42.04;94499.34;5048191;28;20025;-76
2022/10/31 08:40:22;;;;;;;15.23;9.63;;;;;;;17.31;41.95;94499.53;5023186;28;20496;-75
2022/10/31 08:42:47;;;;;;;14.85;9.52;;;;;;;17.27;41.67;94466.41;5036470;28;20025;-75
2022/10/31 08:45:12;;;;;;;16.00;10.75;;;;;;;17.51;41.60;94497.81;5030444;28;20060;-76
2022/10/31 08:47:38;;;;;;;12.25;8.57;;;;;;;17.33;41.20;94472.34;5031265;28;20057;-74
2022/10/31 08:50:03;;;;;;;12.70;9.02;;;;;;;17.48;41.35;94468.94;5031776;28;20477;-75
2022/10/31 08:52:29;;;;;;;16.52;9.45;;;;;;;17.53;41.12;94499.06;5031424;28;20028;-75
2022/10/31 08:54:54;;;;;;;12.93;7.65;;;;;;;17.51;41.21;94470.94;5031473;28;20033;-76
2022/10/31 08:57:20;;;;;;;14.20;7.15;;;;;;;17.77;40.92;94495.53;5034914;28;20388;-76
2022/10/31 08:59:45;;;;;;;12.77;7.55;;;;;;;17.81;41.53;94496.41;5015970;28;20074;-76
2022/10/31 09:02:10;;;;;;;10.27;7.18;;;;;;;17.73;41.40;94488.47;5028268;28;20040;-76
2022/10/31 09:04:36;;;;;;;13.32;7.45;;;;;;;17.80;41.07;94478.69;5031860;28;20056;-75
2022/10/31 09:07:01;;;;;;;13.13;7.95;;;;;;;17.89;41.00;94487.38;5030113;28;20548;-75
2022/10/31 09:09:26;;;;;;;10.98;6.78;;;;;;;17.63;41.19;94452.09;5030580;28;20602;-75
2022/10/31 09:11:52;;;;;;;10.25;6.82;;;;;;;17.79;41.26;94469.06;5032484;28;20024;-76
2022/10/31 09:14:17;;;;;;;11.18;6.68;;;;;;;18.04;41.02;94488.59;5032260;28;20137;-75
2022/10/31 09:16:42;;;;;;;12.82;7.18;;;;;;;17.99;40.85;94489.63;5033066;28;20037;-75
2022/10/31 09:19:08;;;;;;;10.93;7.15;;;;;;;17.84;41.37;94458.06;5032881;28;20488;-75
2022/10/31 09:21:33;;;;;;;18.00;7.57;;;;;;;17.55;41.28;94426.13;5032498;28;20063;-75
2022/10/31 09:23:59;;;;;;;12.38;7.20;;;;;;;17.94;41.40;94481.78;5031951;28;20021;-76
2022/10/31 09:26:24;;;;;;;11.13;6.20;;;;;;;18.08;41.43;94488.72;5031902;28;20025;-75
2022/10/31 09:28:49;;;;;;;12.48;6.93;;;;;;;18.07;41.33;94471.78;5013279;28;20139;-76
2022/10/31 09:31:15;;;;;;;11.85;6.75;;;;;;;18.16;41.08;94463.53;5031023;28;20504;-76
2022/10/31 09:33:41;;;;;;;12.93;6.22;;;;;;;18.19;40.62;94446.69;5030565;28;20025;-75
2022/10/31 09:36:07;;;;;;;16.23;6.25;;;;;;;18.25;40.15;94462.25;5032922;28;20096;-75
2022/10/31 09:38:32;;;;;;;11.85;6.25;;;;;;;18.48;40.38;94475.91;5031926;28;20110;-75
2022/10/31 09:41:13;;;;;;;11.90;7.18;;;;;;;18.23;40.87;94485.28;5031419;28;20804;-75
2022/10/31 09:43:45;;;;;;;9.65;6.50;;;;;;;18.44;40.51;94480.41;5032850;28;20102;-75
2022/10/31 09:46:36;;;;;;;12.13;6.05;;;;;;;18.54;40.28;94482.59;5028120;28;20552;-75
2022/10/31 09:49:07;;;;;;;9.23;6.75;;;;;;;18.66;40.00;94477.13;5027088;28;20509;-75
2022/10/31 09:51:37;;;;;;;9.93;5.38;;;;;;;18.78;39.84;94482.47;5027314;28;20500;-76
2022/10/31 09:54:02;;;;;;;8.38;6.28;;;;;;;18.78;40.15;94478.97;5015512;28;20035;-75
2022/10/31 09:56:30;;;;;;;11.55;6.00;;;;;;;18.83;40.17;94466.03;5034866;28;20020;-75
2022/10/31 09:59:00;;;;;;;12.70;7.57;;;;;;;18.98;39.43;94477.13;5016546;28;20031;-76
2022/10/31 10:01:37;;;;;;;7.72;5.35;;;;;;;19.10;39.58;94469.75;5037086;28;20463;-75
2022/10/31 10:04:18;;;;;;;9.82;4.35;;;;;;;19.14;39.06;94467.13;5036461;28;20025;-75
2022/10/31 10:06:48;;;;;;;11.45;4.20;;;;;;;19.21;38.74;94469.97;5033635;28;20032;-75
2022/10/31 10:09:14;;;;;;;10.93;5.57;;;;;;;19.31;38.85;94466.75;5034065;28;20484;-76
2022/10/31 10:11:39;;;;;;;7.45;4.00;;;;;;;19.43;38.77;94463.13;5035165;28;20033;-76
2022/10/31 10:14:38;;;;;;;8.35;4.10;;;;;;;19.55;38.34;94461.13;5035328;28;20409;-76
2022/10/31 10:17:13;;;;;;;5.13;4.20;;;;;;;19.53;37.90;94455.28;5035248;28;20036;-75
2022/10/31 10:19:38;;;;;;;6.65;3.22;;;;;;;19.54;37.28;94450.69;5033800;28;20025;-75
2022/10/31 10:22:15;;;;;;;8.82;3.17;;;;;;;19.31;37.15;94435.13;5036482;28;20035;-75
2022/10/31 10:24:56;;;;;;;9.13;3.70;;;;;;;19.59;37.12;94459.28;5036443;28;20021;-76
2022/10/31 10:27:43;;;;;;;9.27;4.10;;;;;;;19.73;37.19;94448.78;5035314;28;20434;-75
2022/10/31 10:30:18;;;;;;;6.50;3.22;;;;;;;19.61;36.82;94438.09;5034367;28;20541;-75
2022/10/31 10:32:50;;;;;;;3.60;2.50;;;;;;;19.75;36.57;94443.78;5034089;28;20028;-75
2022/10/31 10:35:30;;;;;;;7.32;2.88;;;;;;;19.72;36.66;94420.22;5035011;28;20037;-75
2022/10/31 10:38:01;;;;;;;6.22;2.47;;;;;;;19.93;35.50;94436.03;5016729;28;20025;-76
2022/10/31 10:40:28;;;;;;;2.80;1.80;;;;;;;20.00;35.43;94433.47;5028026;28;20020;-75
2022/10/31 10:49:10;;;;;;;4.22;2.45;;;;;;;20.21;35.62;94425.00;5032279;28;20628;-76
2022/10/31 10:52:00;;;;;;;6.25;2.50;;;;;;;20.17;35.38;94424.16;5031302;28;20028;-76
2022/10/31 10:54:28;;;;;;;3.70;1.50;;;;;;;20.29;35.60;94423.97;5032644;28;20099;-76
2022/10/31 10:57:09;;;;;;;3.38;1.55;;;;;;;20.29;35.38;94418.56;5031935;28;20108;-75
2022/10/31 10:59:35;;;;;;;9.73;2.17;;;;;;;20.34;35.29;94409.41;5031523;28;20025;-75
2022/10/31 11:02:00;;;;;;;5.00;2.25;;;;;;;20.47;34.85;94425.09;5030967;28;20044;-76
2022/10/31 11:04:35;;;;;;;2.25;1.33;;;;;;;20.60;34.83;94420.25;5032689;28;20401;-76
2022/10/31 11:07:08;;;;;;;4.60;1.73;;;;;;;20.70;33.91;94416.94;5032799;28;20029;-75
2022/10/31 11:09:34;;;;;;;2.80;1.33;;;;;;;20.56;33.88;94387.78;5033008;28;20040;-76
2022/10/31 11:12:07;;;;;;;4.25;1.73;;;;;;;20.62;34.49;94385.56;5033448;28;20041;-75
2022/10/31 11:14:43;;;;;;;2.38;1.42;;;;;;;20.68;33.69;94407.66;5026051;28;20044;-76
2022/10/31 11:17:48;;;;;;;5.40;2.40;;;;;;;20.81;34.10;94409.00;5033309;28;20044;-76
2022/10/31 11:20:13;;;;;;;10.27;2.30;;;;;;;20.76;33.82;94409.31;5029531;28;20032;-75
2022/10/31 11:22:41;;;;;;;12.82;2.03;;;;;;;20.71;34.22;94396.91;5033704;28;20063;-76
2022/10/31 11:25:19;;;;;;;2.47;1.35;;;;;;;20.66;34.14;94402.59;5034585;28;20021;-75
2022/10/31 11:27:45;;;;;;;4.28;1.83;;;;;;;20.57;34.08;94377.75;5032918;28;20044;-75
2022/10/31 11:30:13;;;;;;;2.95;1.45;;;;;;;20.71;33.58;94377.97;5034284;28;20677;-75
2022/10/31 11:32:46;;;;;;;3.90;1.50;;;;;;;20.97;33.54;94398.88;5032918;28;20424;-74
2022/10/31 11:35:18;;;;;;;4.40;1.80;;;;;;;21.05;33.68;94392.41;5033296;28;20611;-76
2022/10/31 11:37:45;;;;;;;9.25;4.15;;;;;;;21.10;33.60;94383.19;5032644;28;20021;-75
2022/10/31 11:40:19;;;;;;;6.20;2.55;;;;;;;21.01;33.50;94386.16;5035764;28;20120;-75
2022/10/31 11:42:45;;;;;;;3.35;1.88;;;;;;;20.85;33.63;94367.38;5041609;28;20618;-75
2022/10/31 11:45:27;;;;;;;3.45;1.67;;;;;;;21.02;33.67;94382.31;5042946;28;20032;-75